Time;durP1;ratioP1;P1;durP2;ratioP2;P2;SDS_P1;SDS_P2;PMS_P1;PMS_P2;Temp;Humidity;BMP_temperature;BMP_pressure;BME280_temperature;BME280_humidity;BME280_pressure;Samples;Min_cycle;Max_cycle;Signal;HPM_P1;HPM_P2
2023/09/07 00:02:17;;;;;;;;;9.00;9.00;;;;;24.61;66.81;100175.06;5040230;28;45514;-70
2023/09/07 00:04:43;;;;;;;;;9.33;8.67;;;;;24.59;66.60;100171.56;5054543;28;46245;-70
2023/09/07 00:07:09;;;;;;;;;9.33;8.33;;;;;24.56;66.58;100170.78;5046863;28;45432;-70
2023/09/07 00:09:34;;;;;;;;;10.33;9.33;;;;;24.48;66.25;100157.66;5049452;28;45538;-70
2023/09/07 00:12:00;;;;;;;;;10.00;9.00;;;;;24.55;66.42;100167.25;5047113;28;45467;-70
2023/09/07 00:14:26;;;;;;;;;8.67;7.67;;;;;24.55;66.07;100166.38;5038615;28;45501;-70
2023/09/07 00:16:51;;;;;;;;;8.00;7.67;;;;;24.56;65.91;100171.66;5053830;28;46045;-70
2023/09/07 00:19:17;;;;;;;;;9.00;9.00;;;;;24.52;66.12;100179.84;5055947;28;46030;-70
2023/09/07 00:21:43;;;;;;;;;9.67;9.00;;;;;24.43;66.11;100170.28;5055685;28;45215;-70
2023/09/07 00:24:09;;;;;;;;;9.33;8.00;;;;;24.44;66.26;100169.38;5056698;28;45504;-70
2023/09/07 00:26:35;;;;;;;;;8.00;7.33;;;;;24.44;65.50;100165.84;5055178;28;45618;-70
2023/09/07 00:29:00;;;;;;;;;9.00;9.00;;;;;24.40;65.65;100163.25;5039854;28;45417;-70
2023/09/07 00:31:26;;;;;;;;;11.33;10.33;;;;;24.40;65.65;100160.59;5036833;28;45707;-70
2023/09/07 00:33:52;;;;;;;;;9.00;8.33;;;;;24.31;66.44;100155.56;5036596;28;45433;-70
2023/09/07 00:36:18;;;;;;;;;9.00;8.33;;;;;23.98;66.34;100099.69;5040950;28;45458;-70
2023/09/07 00:38:44;;;;;;;;;9.33;8.00;;;;;24.27;66.00;100145.03;5047362;28;45426;-70
2023/09/07 00:41:09;;;;;;;;;7.33;7.33;;;;;24.30;66.10;100151.16;5047390;28;45438;-70
2023/09/07 00:43:35;;;;;;;;;10.00;9.00;;;;;24.26;65.50;100141.50;5054585;28;45481;-70
2023/09/07 00:46:00;;;;;;;;;7.00;6.33;;;;;24.27;64.14;100140.56;5041386;28;45334;-70
2023/09/07 00:48:26;;;;;;;;;11.33;9.00;;;;;24.24;63.80;100135.34;5055830;28;45551;-70
2023/09/07 00:50:52;;;;;;;;;7.33;6.33;;;;;24.30;63.38;100137.78;5044293;28;45457;-70
2023/09/07 00:53:18;;;;;;;;;7.33;7.00;;;;;24.31;63.42;100138.66;5050470;28;45611;-70
2023/09/07 00:55:44;;;;;;;;;7.33;6.00;;;;;24.31;62.72;100126.22;5055762;28;45799;-70
2023/09/07 00:58:12;;;;;;;;;6.33;6.00;;;;;24.29;62.06;100125.41;5055301;28;46181;-70
2023/09/07 01:00:37;;;;;;;;;15.00;10.00;;;;;24.25;61.71;100131.72;5056944;28;45530;-69
2023/09/07 01:03:03;;;;;;;;;9.33;8.00;;;;;24.28;61.42;100131.63;5043149;28;45486;-70
2023/09/07 01:05:46;;;;;;;;;9.67;8.33;;;;;24.32;61.20;100129.75;5059635;28;45487;-70
2023/09/07 01:08:25;;;;;;;;;6.67;6.67;;;;;24.31;60.85;100131.56;5059162;28;46230;-70
2023/09/07 01:10:51;;;;;;;;;9.00;5.00;;;;;24.22;61.50;100135.38;5058391;28;45402;-70
2023/09/07 01:13:16;;;;;;;;;7.67;7.00;;;;;24.02;63.60;100137.84;5059336;28;45381;-70
2023/09/07 01:15:42;;;;;;;;;8.33;7.00;;;;;23.87;63.94;100143.66;5059461;28;45643;-70
2023/09/07 01:18:09;;;;;;;;;8.00;7.00;;;;;23.83;62.45;100126.84;5058163;28;46929;-70
2023/09/07 01:20:36;;;;;;;;;7.33;7.33;;;;;23.76;62.78;100135.97;5058588;28;45495;-70
2023/09/07 01:23:04;;;;;;;;;7.33;6.67;;;;;23.77;62.89;100143.03;5054975;28;45552;-70
2023/09/07 01:25:32;;;;;;;;;7.33;7.00;;;;;23.84;62.74;100143.75;5048944;28;45299;-70
2023/09/07 01:27:58;;;;;;;;;7.00;6.33;;;;;23.89;60.69;100139.13;5053980;28;45583;-70
2023/09/07 01:30:27;;;;;;;;;6.00;6.00;;;;;23.94;59.81;100127.41;5054781;28;45385;-72
2023/09/07 01:32:52;;;;;;;;;6.00;6.00;;;;;23.94;58.96;100111.41;5040509;28;45371;-70
2023/09/07 01:35:21;;;;;;;;;4.33;4.33;;;;;24.05;58.10;100121.72;5049116;28;45518;-70
2023/09/07 01:37:47;;;;;;;;;6.00;6.00;;;;;24.09;58.20;100117.16;5045078;28;45609;-70
2023/09/07 01:40:13;;;;;;;;;6.00;5.33;;;;;24.11;58.03;100116.16;5056438;28;45462;-70
2023/09/07 01:42:39;;;;;;;;;6.67;6.00;;;;;24.11;57.82;100112.63;5057905;28;45524;-70
2023/09/07 01:45:06;;;;;;;;;8.00;5.33;;;;;24.18;58.01;100114.19;5058891;28;45524;-70
2023/09/07 01:47:31;;;;;;;;;5.00;5.00;;;;;24.17;57.50;100108.00;5058415;28;45826;-70
2023/09/07 01:49:57;;;;;;;;;6.67;6.33;;;;;24.14;57.92;100104.53;5057925;28;46016;-70
2023/09/07 01:52:22;;;;;;;;;6.00;6.00;;;;;24.12;57.64;100101.91;5052632;28;45496;-70
2023/09/07 01:54:48;;;;;;;;;6.67;6.00;;;;;24.13;57.25;100103.69;5049077;28;45544;-70
2023/09/07 01:57:14;;;;;;;;;4.00;4.00;;;;;24.16;56.62;100116.91;5057414;28;46373;-71
2023/09/07 01:59:39;;;;;;;;;4.33;4.33;;;;;24.16;56.10;100110.69;5042262;28;45873;-71
2023/09/07 02:02:05;;;;;;;;;4.00;4.00;;;;;24.11;56.83;100104.63;5058967;28;45492;-70
2023/09/07 02:04:30;;;;;;;;;5.00;5.00;;;;;24.08;57.42;100110.94;5058919;28;45405;-74
2023/09/07 02:06:56;;;;;;;;;5.00;5.00;;;;;23.91;58.67;100100.81;5045136;28;45434;-70
2023/09/07 02:09:22;;;;;;;;;6.00;5.00;;;;;23.82;59.54;100107.31;5055663;28;45630;-70
2023/09/07 02:11:47;;;;;;;;;5.00;5.00;;;;;23.71;59.57;100092.53;5052746;28;45556;-70
2023/09/07 02:14:13;;;;;;;;;5.33;4.33;;;;;23.70;59.50;100097.00;5045467;28;45322;-70
2023/09/07 02:16:38;;;;;;;;;5.33;4.67;;;;;23.78;59.19;100110.16;5053705;28;45316;-70
2023/09/07 02:19:06;;;;;;;;;6.33;6.33;;;;;23.74;59.87;100097.78;5045929;28;45477;-70
2023/09/07 02:21:32;;;;;;;;;6.67;6.00;;;;;23.80;60.00;100108.31;5058313;28;45400;-70
2023/09/07 02:23:58;;;;;;;;;5.67;5.00;;;;;23.67;59.99;100093.56;5057754;28;45554;-70
2023/09/07 02:26:24;;;;;;;;;6.00;5.00;;;;;23.65;60.31;100108.75;5053555;28;46199;-71
2023/09/07 02:28:50;;;;;;;;;5.67;5.00;;;;;23.60;60.05;100108.88;5043641;28;45400;-92
2023/09/07 02:31:15;;;;;;;;;5.67;5.67;;;;;23.52;60.06;100095.78;5058289;28;45397;-82
2023/09/07 02:33:41;;;;;;;;;5.00;5.00;;;;;23.54;60.22;100099.28;5045277;28;45465;-89
2023/09/07 02:36:07;;;;;;;;;4.33;4.33;;;;;23.49;59.29;100087.00;5054600;28;47664;-70
2023/09/07 02:38:32;;;;;;;;;4.33;4.33;;;;;23.60;59.22;100108.88;5056983;28;45363;-70
2023/09/07 02:40:58;;;;;;;;;6.67;5.00;;;;;23.63;59.14;100104.34;5048506;28;45240;-70
2023/09/07 02:43:23;;;;;;;;;5.00;4.00;;;;;23.65;58.42;100100.75;5052189;28;45442;-70
2023/09/07 02:45:50;;;;;;;;;4.00;4.00;;;;;23.66;58.62;100106.03;5041343;28;45552;-70
2023/09/07 02:48:16;;;;;;;;;7.00;7.00;;;;;23.48;60.66;100093.28;5057489;28;45484;-70
2023/09/07 02:50:42;;;;;;;;;6.33;6.00;;;;;23.41;60.77;100095.22;5053199;28;45445;-70
2023/09/07 02:53:08;;;;;;;;;6.00;6.00;;;;;23.29;61.21;100093.81;5050890;28;45267;-90
2023/09/07 02:55:34;;;;;;;;;5.33;5.33;;;;;23.34;61.06;100099.88;5055066;28;45857;-70
2023/09/07 02:58:03;;;;;;;;;6.67;6.00;;;;;23.30;61.46;100092.00;5057340;28;45468;-70
2023/09/07 03:00:28;;;;;;;;;6.00;5.67;;;;;23.28;61.21;100093.84;5057819;28;45522;-70
2023/09/07 03:02:54;;;;;;;;;4.67;4.33;;;;;23.28;61.54;100092.06;5058017;28;45533;-71
2023/09/07 03:05:20;;;;;;;;;6.00;4.00;;;;;23.23;60.42;100089.53;5055154;28;46083;-70
2023/09/07 03:07:47;;;;;;;;;5.00;5.00;;;;;23.22;60.59;100093.13;5043620;28;45583;-70
2023/09/07 03:10:13;;;;;;;;;5.00;5.00;;;;;23.22;61.40;100098.47;5057235;28;45436;-70
2023/09/07 03:12:38;;;;;;;;;5.00;5.00;;;;;23.15;60.84;100088.88;5057785;28;45473;-70
2023/09/07 03:15:06;;;;;;;;;4.00;4.00;;;;;23.13;60.50;100088.06;5039671;28;45568;-70
2023/09/07 03:17:31;;;;;;;;;6.00;4.33;;;;;23.14;60.60;100086.25;5051522;28;45410;-70
2023/09/07 03:19:57;;;;;;;;;5.00;5.00;;;;;23.15;60.47;100091.53;5056763;28;45822;-70
2023/09/07 03:22:23;;;;;;;;;5.00;5.00;;;;;23.19;60.80;100093.19;5051481;28;45297;-70
2023/09/07 03:24:52;;;;;;;;;4.00;4.00;;;;;23.22;60.74;100101.13;5047406;28;45414;-70
2023/09/07 03:27:18;;;;;;;;;5.67;5.00;;;;;23.21;61.48;100096.69;5056304;28;45485;-70
2023/09/07 03:29:51;;;;;;;;;6.00;6.00;;;;;23.21;60.75;100099.34;5056390;28;45557;-70
2023/09/07 03:32:17;;;;;;;;;4.00;4.00;;;;;23.19;61.03;100092.34;5057593;28;45503;-70
2023/09/07 03:34:42;;;;;;;;;5.33;5.33;;;;;23.23;61.00;100100.19;5057136;28;45972;-70
2023/09/07 03:37:11;;;;;;;;;6.67;6.00;;;;;23.22;60.87;100093.13;5057537;28;45382;-70
2023/09/07 03:39:37;;;;;;;;;5.00;4.67;;;;;23.24;60.34;100095.75;5056054;28;45355;-70
2023/09/07 03:42:02;;;;;;;;;2.33;2.00;;;;;23.22;59.26;100082.47;5049203;28;45465;-70
2023/09/07 03:44:28;;;;;;;;;6.00;5.33;;;;;23.24;58.05;100085.09;5048984;28;45488;-70
2023/09/07 03:46:54;;;;;;;;;6.00;5.00;;;;;23.37;56.96;100093.59;5056357;28;45973;-70
2023/09/07 03:49:19;;;;;;;;;5.00;5.00;;;;;23.44;56.27;100081.81;5052803;28;45516;-70
2023/09/07 03:51:45;;;;;;;;;6.00;6.00;;;;;23.47;55.84;100071.06;5045493;28;45480;-70
2023/09/07 03:54:10;;;;;;;;;5.67;5.00;;;;;23.58;54.68;100073.41;5044999;28;45367;-70
2023/09/07 03:56:36;;;;;;;;;5.33;5.33;;;;;23.64;54.74;100073.22;5051394;28;45516;-70
2023/09/07 03:59:02;;;;;;;;;6.33;6.00;;;;;23.72;53.73;100070.31;5052690;28;45316;-70
2023/09/07 04:01:28;;;;;;;;;4.00;4.00;;;;;23.78;53.63;100071.00;5037783;28;45454;-70
2023/09/07 04:03:53;;;;;;;;;5.00;4.00;;;;;23.84;54.21;100077.94;5037344;28;46056;-70
2023/09/07 04:06:19;;;;;;;;;5.00;5.00;;;;;23.77;54.27;100055.91;5036134;28;45505;-70
2023/09/07 04:08:45;;;;;;;;;6.00;6.00;;;;;23.90;54.10;100068.88;5037950;28;45322;-70
2023/09/07 04:11:10;;;;;;;;;5.00;5.00;;;;;23.93;53.96;100072.28;5038101;28;45378;-70
2023/09/07 04:13:36;;;;;;;;;7.00;6.00;;;;;23.94;53.45;100071.38;5037407;28;45482;-70
2023/09/07 04:16:02;;;;;;;;;4.67;4.00;;;;;23.93;53.34;100066.94;5037305;28;45418;-70
2023/09/07 04:18:27;;;;;;;;;7.00;6.00;;;;;23.99;54.25;100084.56;5037410;28;45394;-70
2023/09/07 04:20:53;;;;;;;;;6.00;6.00;;;;;23.93;56.09;100082.09;5037456;28;45558;-70
2023/09/07 04:23:19;;;;;;;;;5.00;5.00;;;;;23.89;54.65;100077.78;5037278;28;45501;-69
2023/09/07 04:25:44;;;;;;;;;7.33;6.67;;;;;23.87;54.60;100066.28;5039828;28;45653;-70
2023/09/07 04:28:10;;;;;;;;;6.67;6.67;;;;;24.00;53.55;100083.66;5057020;28;45333;-70
2023/09/07 04:30:41;;;;;;;;;11.67;10.67;;;;;24.02;53.10;100066.66;5057228;28;45484;-70
2023/09/07 04:33:07;;;;;;;;;9.33;9.00;;;;;24.17;51.88;100077.72;5057177;28;45381;-70
2023/09/07 04:35:33;;;;;;;;;6.00;6.00;;;;;24.23;51.38;100072.19;5056464;28;45461;-70
2023/09/07 04:37:59;;;;;;;;;10.33;10.00;;;;;24.33;51.02;100070.06;5057245;28;45357;-70
2023/09/07 04:40:25;;;;;;;;;3.33;3.33;;;;;24.42;50.66;100075.97;5057331;28;45208;-70
2023/09/07 04:42:51;;;;;;;;;8.33;8.33;;;;;24.48;50.71;100076.69;5055702;28;46217;-70
2023/09/07 04:45:17;;;;;;;;;7.67;7.67;;;;;24.54;51.08;100077.38;5057253;28;45542;-70
2023/09/07 04:47:43;;;;;;;;;8.00;8.00;;;;;24.57;51.08;100079.97;5057438;28;45485;-70
2023/09/07 04:50:09;;;;;;;;;6.00;6.00;;;;;24.56;50.94;100075.53;5057381;28;45374;-70
2023/09/07 04:52:35;;;;;;;;;7.33;7.33;;;;;24.65;50.33;100079.69;5055530;28;47898;-70
2023/09/07 04:55:01;;;;;;;;;7.33;7.33;;;;;24.71;50.46;100082.13;5055598;28;45440;-70
2023/09/07 04:57:27;;;;;;;;;7.67;7.33;;;;;24.76;50.19;100079.28;5056726;28;45504;-72
2023/09/07 04:59:53;;;;;;;;;10.00;9.00;;;;;24.77;49.66;100073.91;5055544;28;45565;-72
2023/09/07 05:02:18;;;;;;;;;8.33;8.00;;;;;24.85;49.42;100070.06;5055125;28;45508;-70
2023/09/07 05:04:44;;;;;;;;;8.33;8.33;;;;;24.92;49.45;100075.13;5055694;28;45691;-70
2023/09/07 05:07:10;;;;;;;;;8.33;7.67;;;;;24.96;49.64;100073.22;5049150;28;45437;-70
2023/09/07 05:09:36;;;;;;;;;10.67;10.00;;;;;24.99;49.09;100068.63;5043710;28;45323;-70
2023/09/07 05:12:01;;;;;;;;;9.33;9.33;;;;;25.08;48.75;100077.22;5052899;28;46111;-69
2023/09/07 05:14:34;;;;;;;;;7.00;7.00;;;;;25.01;48.85;100061.44;5039755;28;45602;-69
2023/09/07 05:17:00;;;;;;;;;13.00;10.33;;;;;25.07;49.64;100078.16;5055453;28;45551;-70
2023/09/07 05:19:25;;;;;;;;;9.67;8.00;;;;;25.11;48.88;100071.75;5055354;28;45453;-70
2023/09/07 05:21:51;;;;;;;;;8.33;7.33;;;;;25.16;49.31;100075.16;5054423;28;45847;-72
2023/09/07 05:24:16;;;;;;;;;8.00;8.00;;;;;25.18;48.83;100074.16;5054383;28;45352;-70
2023/09/07 05:26:43;;;;;;;;;8.00;8.00;;;;;25.16;48.63;100075.16;5046667;28;45583;-70
2023/09/07 05:29:09;;;;;;;;;9.33;7.67;;;;;25.29;48.24;100088.97;5047300;28;45409;-70
2023/09/07 05:31:35;;;;;;;;;6.33;6.33;;;;;25.34;48.35;100095.00;5038879;28;46102;-70
2023/09/07 05:34:01;;;;;;;;;8.00;8.00;;;;;25.37;48.58;100095.75;5055255;28;45414;-70
2023/09/07 05:36:27;;;;;;;;;8.00;7.00;;;;;25.35;48.34;100084.25;5054580;28;45543;-70
2023/09/07 05:38:53;;;;;;;;;10.00;9.00;;;;;25.46;48.31;100090.97;5055286;28;45393;-70
2023/09/07 05:41:19;;;;;;;;;7.00;6.00;;;;;25.49;48.43;100098.88;5053517;28;45619;-70
2023/09/07 05:43:44;;;;;;;;;9.00;8.00;;;;;25.52;48.48;100104.97;5054409;28;45510;-72
2023/09/07 05:46:10;;;;;;;;;7.67;7.00;;;;;25.53;48.46;100101.38;5055063;28;45630;-72
2023/09/07 05:48:36;;;;;;;;;8.00;8.00;;;;;25.55;48.10;100106.66;5058026;28;45525;-70
2023/09/07 05:51:01;;;;;;;;;8.33;6.33;;;;;25.58;48.53;100099.38;5056676;28;45583;-70
2023/09/07 05:53:27;;;;;;;;;8.00;7.67;;;;;25.66;48.23;100107.09;5057655;28;45377;-70
2023/09/07 05:55:53;;;;;;;;;7.00;7.00;;;;;25.73;48.25;100100.59;5050047;28;45430;-70
2023/09/07 05:58:19;;;;;;;;;7.33;7.00;;;;;25.78;47.95;100093.25;5052025;28;45522;-70
2023/09/07 06:00:44;;;;;;;;;7.33;7.33;;;;;25.98;47.70;100103.19;5057432;28;46086;-70
2023/09/07 06:03:10;;;;;;;;;6.00;6.00;;;;;26.14;47.62;100107.88;5058204;28;45509;-70
2023/09/07 06:05:38;;;;;;;;;8.00;7.00;;;;;26.23;47.34;100099.47;5058319;28;45484;-70
2023/09/07 06:08:04;;;;;;;;;9.00;9.00;;;;;26.44;47.35;100099.50;5058651;28;45327;-70
2023/09/07 06:10:30;;;;;;;;;9.00;7.67;;;;;26.60;47.02;100097.97;5057518;28;46171;-70
2023/09/07 06:12:56;;;;;;;;;8.33;8.33;;;;;26.75;46.75;100099.06;5057409;28;45370;-70
2023/09/07 06:15:22;;;;;;;;;7.33;7.00;;;;;26.98;46.09;100095.38;5057362;28;45349;-70
2023/09/07 06:17:48;;;;;;;;;11.00;10.00;;;;;27.17;45.93;100098.94;5050347;28;45698;-70
2023/09/07 06:20:13;;;;;;;;;9.00;8.33;;;;;27.37;45.82;100102.53;5058321;28;45401;-70
2023/09/07 06:22:39;;;;;;;;;11.67;9.00;;;;;27.58;45.07;100098.84;5057856;28;45528;-70
2023/09/07 06:25:05;;;;;;;;;9.33;9.00;;;;;27.73;45.36;100093.69;5056547;28;45466;-70
2023/09/07 06:27:31;;;;;;;;;8.00;7.67;;;;;27.96;44.63;100100.66;5058275;28;45504;-70
2023/09/07 06:29:56;;;;;;;;;8.00;7.00;;;;;28.13;44.50;100098.00;5057758;28;45346;-70
2023/09/07 06:32:23;;;;;;;;;8.00;8.00;;;;;28.25;44.57;100101.91;5043132;28;45564;-70
2023/09/07 06:34:48;;;;;;;;;7.00;6.00;;;;;28.39;44.14;100103.84;5053988;28;45481;-70
2023/09/07 06:37:14;;;;;;;;;9.00;8.67;;;;;28.51;43.98;100105.06;5046007;28;45578;-70
2023/09/07 06:39:42;;;;;;;;;7.33;7.33;;;;;28.61;43.95;100109.06;5057991;28;45508;-70
2023/09/07 06:42:09;;;;;;;;;9.00;8.67;;;;;28.70;43.68;100111.25;5057397;28;45580;-70
2023/09/07 06:44:35;;;;;;;;;6.00;6.00;;;;;28.81;43.59;100108.00;5056984;28;45310;-70
2023/09/07 06:47:00;;;;;;;;;9.00;9.00;;;;;29.05;43.38;100118.38;5058279;28;45548;-70
2023/09/07 06:49:28;;;;;;;;;8.67;7.67;;;;;29.65;42.29;100117.84;5057791;28;45489;-70
2023/09/07 06:51:54;;;;;;;;;8.33;8.00;;;;;30.42;40.05;100113.44;5057431;28;45451;-70
2023/09/07 06:54:19;;;;;;;;;8.33;7.00;;;;;30.99;39.53;100116.28;5051976;28;45594;-70
2023/09/07 06:56:45;;;;;;;;;8.33;7.67;;;;;31.83;39.05;100122.69;5046358;28;45636;-70
2023/09/07 06:59:10;;;;;;;;;8.67;8.00;;;;;32.76;37.94;100120.13;5056119;28;46252;-70
2023/09/07 07:01:36;;;;;;;;;10.00;9.00;;;;;34.03;35.86;100127.25;5055769;28;45456;-70
2023/09/07 07:04:02;;;;;;;;;7.33;7.00;;;;;35.10;34.32;100116.38;5057775;28;45315;-71
2023/09/07 07:06:27;;;;;;;;;8.00;7.33;;;;;36.23;32.41;100117.16;5057964;28;45338;-71
2023/09/07 07:08:53;;;;;;;;;6.00;6.00;;;;;36.62;32.12;100121.06;5044465;28;45980;-71
2023/09/07 07:11:19;;;;;;;;;5.67;5.33;;;;;35.89;32.15;100110.97;5054927;28;46078;-71
2023/09/07 07:13:45;;;;;;;;;8.00;7.67;;;;;35.23;32.75;100109.03;5055908;28;45641;-71
2023/09/07 07:16:10;;;;;;;;;14.67;14.33;;;;;35.12;33.92;100114.41;5057146;28;45523;-70
2023/09/07 07:18:36;;;;;;;;;7.33;7.33;;;;;35.64;33.19;100116.53;5056114;28;45430;-71
2023/09/07 07:21:01;;;;;;;;;5.00;5.00;;;;;36.81;31.31;100124.97;5057395;28;45621;-71
2023/09/07 07:23:27;;;;;;;;;7.33;7.00;;;;;37.71;30.55;100124.25;5057035;28;45389;-71
2023/09/07 07:25:53;;;;;;;;;6.33;6.33;;;;;38.60;28.71;100126.09;5053946;28;45470;-71
2023/09/07 07:28:18;;;;;;;;;8.00;7.00;;;;;39.50;28.62;100134.81;5047243;28;46355;-71
2023/09/07 07:30:44;;;;;;;;;7.33;7.33;;;;;40.24;26.79;100139.25;5044247;28;45397;-70
2023/09/07 07:33:11;;;;;;;;;6.33;6.33;;;;;40.90;26.55;100129.72;5040756;28;45539;-71
2023/09/07 07:35:37;;;;;;;;;7.33;7.00;;;;;41.31;25.47;100143.72;5052334;28;45673;-72
2023/09/07 07:38:04;;;;;;;;;9.00;8.00;;;;;41.61;25.62;100136.00;5056234;28;46011;-89
2023/09/07 07:40:30;;;;;;;;;8.00;7.00;;;;;42.23;24.73;100143.03;5057116;28;45408;-95
2023/09/07 07:42:56;;;;;;;;;8.00;8.00;;;;;42.52;24.17;100148.06;5054456;28;45313;-71
2023/09/07 07:45:22;;;;;;;;;7.33;6.33;;;;;42.93;24.66;100145.28;5044873;28;45610;-71
2023/09/07 07:47:51;;;;;;;;;6.67;6.67;;;;;42.84;24.34;100138.06;5056459;28;45548;-71
2023/09/07 07:50:17;;;;;;;;;8.67;7.33;;;;;42.33;24.77;100139.06;5056067;28;45397;-71
2023/09/07 07:52:43;;;;;;;;;7.67;7.67;;;;;42.44;24.94;100135.19;5043737;28;45539;-71
2023/09/07 07:55:10;;;;;;;;;7.33;7.33;;;;;42.48;24.95;100130.19;5050686;28;45485;-71
2023/09/07 07:57:36;;;;;;;;;7.00;7.00;;;;;42.72;25.01;100121.94;5039968;28;45998;-71
2023/09/07 08:00:04;;;;;;;;;4.33;4.00;;;;;42.88;23.32;100120.25;5055967;28;45515;-71
2023/09/07 08:02:30;;;;;;;;;8.00;7.33;;;;;42.84;23.74;100125.19;5046051;28;45769;-72
2023/09/07 08:04:55;;;;;;;;;9.33;8.67;;;;;42.50;23.51;100107.03;5051455;28;45461;-71
2023/09/07 08:07:21;;;;;;;;;7.00;7.00;;;;;42.66;24.36;100128.13;5055457;28;46430;-70
2023/09/07 08:09:47;;;;;;;;;8.00;8.00;;;;;42.82;24.70;100142.88;5055030;28;45445;-71
2023/09/07 08:12:13;;;;;;;;;9.00;8.67;;;;;42.97;24.02;100141.16;5055489;28;45663;-70
2023/09/07 08:14:38;;;;;;;;;7.33;7.33;;;;;43.23;24.18;100146.41;5055434;28;45513;-71
2023/09/07 08:17:04;;;;;;;;;8.67;8.67;;;;;43.45;23.84;100147.56;5052276;28;45457;-70
2023/09/07 08:19:30;;;;;;;;;4.67;4.67;;;;;43.41;23.14;100159.97;5041425;28;45382;-71
2023/09/07 08:21:58;;;;;;;;;9.00;9.00;;;;;43.95;23.07;100156.47;5056589;28;45456;-71
2023/09/07 08:24:24;;;;;;;;;7.00;6.33;;;;;44.37;22.39;100170.84;5055906;28;45703;-71
2023/09/07 08:26:51;;;;;;;;;8.67;8.67;;;;;44.68;21.51;100155.09;5054807;28;46321;-74
2023/09/07 08:29:17;;;;;;;;;9.00;8.33;;;;;45.18;22.42;100161.00;5055931;28;45552;-71
2023/09/07 08:31:45;;;;;;;;;7.67;7.67;;;;;45.15;21.85;100157.78;5055317;28;45480;-71
2023/09/07 08:34:11;;;;;;;;;14.67;14.67;;;;;44.91;20.78;100158.88;5056517;28;45512;-71
2023/09/07 08:36:37;;;;;;;;;7.67;7.67;;;;;45.17;21.33;100159.31;5056414;28;45493;-70
2023/09/07 08:39:08;;;;;;;;;6.33;6.33;;;;;45.56;20.80;100152.66;5054385;28;45466;-71
2023/09/07 08:41:44;;;;;;;;;6.67;6.00;;;;;46.12;20.63;100148.47;5055663;28;45461;-71
2023/09/07 08:44:19;;;;;;;;;7.00;7.00;;;;;46.50;19.78;100162.03;5054961;28;45478;-71
2023/09/07 08:46:45;;;;;;;;;9.00;8.00;;;;;46.95;20.13;100165.44;5039565;28;46234;-73
2023/09/07 08:49:11;;;;;;;;;9.67;9.67;;;;;47.20;19.21;100166.69;5054783;28;45600;-71
2023/09/07 08:51:38;;;;;;;;;8.00;8.00;;;;;47.03;19.34;100163.34;5047122;28;45469;-70
2023/09/07 08:54:07;;;;;;;;;9.33;9.33;;;;;46.47;19.83;100173.50;5039908;28;45407;-71
2023/09/07 08:56:34;;;;;;;;;9.33;9.33;;;;;46.43;20.71;100173.06;5052016;28;46318;-70
2023/09/07 08:59:00;;;;;;;;;11.00;10.67;;;;;45.92;20.60;100168.41;5055674;28;45467;-72
2023/09/07 09:01:31;;;;;;;;;6.67;6.67;;;;;45.49;20.38;100159.16;5045574;28;45529;-71
2023/09/07 09:03:58;;;;;;;;;10.00;9.00;;;;;46.11;20.34;100135.75;5050099;28;45589;-71
2023/09/07 09:06:24;;;;;;;;;10.67;10.67;;;;;46.62;20.33;100160.47;5038643;28;45539;-71
2023/09/07 09:08:50;;;;;;;;;9.00;9.00;;;;;46.51;18.97;100155.47;5054463;28;45563;-71
2023/09/07 09:11:17;;;;;;;;;9.33;9.33;;;;;46.55;19.25;100151.28;5055001;28;45606;-71
2023/09/07 09:13:43;;;;;;;;;9.00;8.67;;;;;46.73;19.33;100150.78;5041054;28;45340;-75
2023/09/07 09:16:10;;;;;;;;;8.67;8.00;;;;;46.19;20.11;100154.94;5046125;28;45481;-71
2023/09/07 09:18:36;;;;;;;;;9.00;9.00;;;;;46.13;20.36;100153.81;5045321;28;45490;-71
2023/09/07 09:21:02;;;;;;;;;8.00;8.00;;;;;45.96;20.04;100149.56;5037973;28;45519;-71
2023/09/07 09:23:37;;;;;;;;;8.67;8.67;;;;;45.41;20.59;100151.84;5042060;28;45738;-72
2023/09/07 09:26:05;;;;;;;;;8.67;8.00;;;;;45.51;20.87;100148.78;5049725;28;45656;-71
2023/09/07 09:28:34;;;;;;;;;8.00;8.00;;;;;45.65;21.54;100151.53;5054035;28;45481;-71
2023/09/07 09:31:01;;;;;;;;;8.00;8.00;;;;;45.91;20.55;100154.81;5050851;28;45367;-71
2023/09/07 09:33:30;;;;;;;;;4.00;3.67;;;;;46.10;20.73;100148.66;5054338;28;45515;-81
2023/09/07 09:35:57;;;;;;;;;8.33;7.33;;;;;45.99;20.60;100143.66;5051995;28;45353;-91
2023/09/07 09:38:26;;;;;;;;;9.67;9.33;;;;;45.89;20.45;100143.97;5044726;28;45585;-72
2023/09/07 09:40:52;;;;;;;;;13.33;13.00;;;;;46.29;20.55;100147.19;5056511;28;45492;-71
2023/09/07 09:43:21;;;;;;;;;8.00;7.33;;;;;46.35;20.62;100148.28;5051488;28;45386;-73
2023/09/07 09:45:50;;;;;;;;;10.00;10.00;;;;;46.18;20.66;100148.56;5038913;28;45983;-75
2023/09/07 09:48:18;;;;;;;;;8.00;8.00;;;;;46.11;19.99;100149.53;5044696;28;45371;-71
2023/09/07 09:50:45;;;;;;;;;7.67;7.67;;;;;46.09;20.67;100144.22;5056800;28;45376;-71
2023/09/07 09:53:15;;;;;;;;;6.33;6.33;;;;;46.17;20.49;100140.47;5055740;28;45255;-71
2023/09/07 09:55:41;;;;;;;;;9.33;9.00;;;;;46.03;20.82;100122.88;5042528;28;45505;-71
2023/09/07 09:58:07;;;;;;;;;9.67;9.67;;;;;46.21;20.10;100144.56;5057711;28;45319;-71
2023/09/07 10:00:37;;;;;;;;;8.00;8.00;;;;;46.02;20.42;100144.13;5056677;28;45379;-71
2023/09/07 10:03:19;;;;;;;;;6.00;6.00;;;;;46.21;20.57;100150.91;5056374;28;45473;-70
2023/09/07 10:05:46;;;;;;;;;9.33;9.33;;;;;45.85;20.66;100150.94;5045075;28;46173;-71
2023/09/07 10:08:18;;;;;;;;;9.67;9.33;;;;;45.53;21.10;100139.25;5057826;28;45337;-70
2023/09/07 10:10:47;;;;;;;;;8.33;8.33;;;;;45.37;21.71;100140.31;5056000;28;45406;-74
2023/09/07 10:13:29;;;;;;;;;8.00;8.00;;;;;45.74;21.17;100148.66;5057906;28;45492;-71
2023/09/07 10:16:07;;;;;;;;;8.67;7.67;;;;;45.44;21.40;100140.41;5056083;28;47924;-70
2023/09/07 10:18:37;;;;;;;;;9.00;9.00;;;;;45.41;21.27;100151.84;5056188;28;45747;-70
2023/09/07 10:21:04;;;;;;;;;9.00;9.00;;;;;45.40;20.88;100148.19;5052425;28;45535;-71
2023/09/07 10:23:38;;;;;;;;;7.33;7.33;;;;;44.90;21.96;100149.78;5055389;28;45497;-71
2023/09/07 10:26:05;;;;;;;;;12.00;11.00;;;;;44.78;21.12;100151.25;5057061;28;46306;-70
2023/09/07 10:28:30;;;;;;;;;10.00;9.33;;;;;44.87;22.10;100136.38;5055956;28;45389;-70
2023/09/07 10:31:17;;;;;;;;;8.67;8.33;;;;;44.66;21.93;100126.03;5057610;28;45779;-70
2023/09/07 10:33:43;;;;;;;;;8.33;8.00;;;;;44.94;21.95;100129.06;5036940;28;45375;-70
2023/09/07 10:36:08;;;;;;;;;10.00;9.00;;;;;44.54;21.95;100128.38;5052101;28;45982;-70
2023/09/07 10:38:35;;;;;;;;;11.00;9.67;;;;;44.40;21.83;100093.38;5044390;28;45347;-70
2023/09/07 10:41:04;;;;;;;;;8.33;8.00;;;;;44.38;22.57;100134.88;5057569;28;45485;-70
2023/09/07 10:43:33;;;;;;;;;9.33;8.33;;;;;44.01;22.81;100131.00;5055902;28;45681;-70
2023/09/07 10:46:00;;;;;;;;;10.00;8.33;;;;;44.12;22.53;100139.91;5057254;28;46086;-70
2023/09/07 10:48:29;;;;;;;;;7.33;7.33;;;;;44.28;22.46;100140.63;5056831;28;45547;-70
2023/09/07 10:50:55;;;;;;;;;6.67;6.67;;;;;44.21;21.99;100144.28;5056661;28;45495;-70
2023/09/07 10:53:32;;;;;;;;;11.67;11.67;;;;;44.09;21.42;100143.84;5055932;28;45418;-72
2023/09/07 10:56:02;;;;;;;;;9.00;9.00;;;;;43.65;22.01;100133.38;5041699;28;46122;-70
2023/09/07 10:58:35;;;;;;;;;9.00;9.00;;;;;43.51;22.36;100137.75;5056900;28;46215;-70
2023/09/07 11:01:05;;;;;;;;;9.33;9.00;;;;;43.08;23.44;100127.06;5057153;28;45519;-70
2023/09/07 11:03:31;;;;;;;;;7.00;7.00;;;;;42.81;22.82;100144.75;5056747;28;45633;-71
2023/09/07 11:06:07;;;;;;;;;9.00;9.00;;;;;42.64;23.52;100126.56;5056909;28;45886;-71
2023/09/07 11:08:34;;;;;;;;;9.00;8.67;;;;;42.57;23.74;100139.31;5055726;28;45319;-70
2023/09/07 11:11:02;;;;;;;;;11.00;11.00;;;;;42.32;24.57;100131.88;5056950;28;45562;-70
2023/09/07 11:13:28;;;;;;;;;10.00;9.00;;;;;42.18;25.16;100134.44;5056225;28;45231;-70
2023/09/07 11:15:55;;;;;;;;;9.00;9.00;;;;;42.07;24.71;100136.47;5054952;28;45554;-70
2023/09/07 11:18:22;;;;;;;;;8.33;8.00;;;;;41.92;24.23;100135.38;5057140;28;45510;-70
2023/09/07 11:20:49;;;;;;;;;8.00;8.00;;;;;41.30;25.26;100141.13;5057319;28;45402;-70
2023/09/07 11:23:17;;;;;;;;;9.67;9.67;;;;;41.37;26.07;100130.38;5042232;28;45500;-70